sensor_id;sensor_type;location;lat;lon;timestamp;temperature;humidity
19252;DHT22;9760;50.944;5.304;2022-12-07T00:01:47;4.70;99.90
19252;DHT22;9760;50.944;5.304;2022-12-07T00:04:14;4.70;99.90
19252;DHT22;9760;50.944;5.304;2022-12-07T00:06:45;4.60;99.90
19252;DHT22;9760;50.944;5.304;2022-12-07T00:09:16;4.70;99.90
19252;DHT22;9760;50.944;5.304;2022-12-07T00:11:42;4.70;99.90
19252;DHT22;9760;50.944;5.304;2022-12-07T00:14:14;4.70;99.90
19252;DHT22;9760;50.944;5.304;2022-12-07T00:16:41;4.70;99.90
19252;DHT22;9760;50.944;5.304;2022-12-07T00:19:07;4.70;99.90
19252;DHT22;9760;50.944;5.304;2022-12-07T00:21:34;4.70;99.90
19252;DHT22;9760;50.944;5.304;2022-12-07T00:24:01;4.60;99.90
19252;DHT22;9760;50.944;5.304;2022-12-07T00:26:38;4.60;99.90
19252;DHT22;9760;50.944;5.304;2022-12-07T00:29:16;4.60;99.90
19252;DHT22;9760;50.944;5.304;2022-12-07T00:31:42;4.60;99.90
19252;DHT22;9760;50.944;5.304;2022-12-07T00:34:15;4.60;99.90
19252;DHT22;9760;50.944;5.304;2022-12-07T00:36:41;4.60;99.90
19252;DHT22;9760;50.944;5.304;2022-12-07T00:39:07;4.60;99.90
19252;DHT22;9760;50.944;5.304;2022-12-07T00:41:32;4.60;99.90
19252;DHT22;9760;50.944;5.304;2022-12-07T00:43:58;4.70;99.90
19252;DHT22;9760;50.944;5.304;2022-12-07T00:46:24;4.70;99.90
19252;DHT22;9760;50.944;5.304;2022-12-07T00:48:50;4.70;99.90
19252;DHT22;9760;50.944;5.304;2022-12-07T00:51:18;4.70;99.90
19252;DHT22;9760;50.944;5.304;2022-12-07T00:53:44;4.70;99.90
19252;DHT22;9760;50.944;5.304;2022-12-07T00:56:15;4.80;99.90
19252;DHT22;9760;50.944;5.304;2022-12-07T00:58:41;4.80;99.90
19252;DHT22;9760;50.944;5.304;2022-12-07T01:01:08;4.80;99.90
19252;DHT22;9760;50.944;5.304;2022-12-07T01:03:34;4.80;99.90
19252;DHT22;9760;50.944;5.304;2022-12-07T01:06:00;4.80;99.90
19252;DHT22;9760;50.944;5.304;2022-12-07T01:08:27;4.80;99.90
19252;DHT22;9760;50.944;5.304;2022-12-07T01:13:25;4.80;99.90
19252;DHT22;9760;50.944;5.304;2022-12-07T01:15:50;4.80;99.90
19252;DHT22;9760;50.944;5.304;2022-12-07T01:18:16;4.80;99.90
19252;DHT22;9760;50.944;5.304;2022-12-07T01:20:41;4.90;99.90
19252;DHT22;9760;50.944;5.304;2022-12-07T01:23:07;4.90;99.90
19252;DHT22;9760;50.944;5.304;2022-12-07T01:25:33;4.90;99.90
19252;DHT22;9760;50.944;5.304;2022-12-07T01:27:59;4.90;99.90
19252;DHT22;9760;50.944;5.304;2022-12-07T01:30:24;4.90;99.90
19252;DHT22;9760;50.944;5.304;2022-12-07T01:32:50;5.00;99.90
19252;DHT22;9760;50.944;5.304;2022-12-07T01:35:15;4.90;99.90
19252;DHT22;9760;50.944;5.304;2022-12-07T01:37:41;4.90;99.90
19252;DHT22;9760;50.944;5.304;2022-12-07T01:40:08;4.90;99.90
19252;DHT22;9760;50.944;5.304;2022-12-07T01:42:34;4.90;99.90
19252;DHT22;9760;50.944;5.304;2022-12-07T01:47:50;4.90;99.90
19252;DHT22;9760;50.944;5.304;2022-12-07T01:50:16;5.00;99.90
19252;DHT22;9760;50.944;5.304;2022-12-07T01:52:44;5.00;99.90
19252;DHT22;9760;50.944;5.304;2022-12-07T01:55:13;4.90;99.90
19252;DHT22;9760;50.944;5.304;2022-12-07T01:57:45;4.90;99.90
19252;DHT22;9760;50.944;5.304;2022-12-07T02:00:13;4.90;99.90
19252;DHT22;9760;50.944;5.304;2022-12-07T02:05:13;4.90;99.90
19252;DHT22;9760;50.944;5.304;2022-12-07T02:07:39;4.90;99.90
19252;DHT22;9760;50.944;5.304;2022-12-07T02:10:16;4.80;99.90
19252;DHT22;9760;50.944;5.304;2022-12-07T02:12:43;4.80;99.90
19252;DHT22;9760;50.944;5.304;2022-12-07T02:15:10;4.80;99.90
19252;DHT22;9760;50.944;5.304;2022-12-07T02:20:25;4.80;99.90
19252;DHT22;9760;50.944;5.304;2022-12-07T02:28:32;4.80;99.90
19252;DHT22;9760;50.944;5.304;2022-12-07T02:31:06;4.80;99.90
19252;DHT22;9760;50.944;5.304;2022-12-07T02:33:41;4.80;99.90
19252;DHT22;9760;50.944;5.304;2022-12-07T02:36:16;4.80;99.90
19252;DHT22;9760;50.944;5.304;2022-12-07T02:38:55;4.80;99.90
19252;DHT22;9760;50.944;5.304;2022-12-07T02:41:37;4.80;99.90
19252;DHT22;9760;50.944;5.304;2022-12-07T02:44:09;4.80;99.90
19252;DHT22;9760;50.944;5.304;2022-12-07T02:46:42;4.80;99.90
19252;DHT22;9760;50.944;5.304;2022-12-07T02:49:08;4.80;99.90
19252;DHT22;9760;50.944;5.304;2022-12-07T02:51:39;4.80;99.90
19252;DHT22;9760;50.944;5.304;2022-12-07T02:54:16;4.80;99.90
19252;DHT22;9760;50.944;5.304;2022-12-07T02:59:46;4.80;99.90
19252;DHT22;9760;50.944;5.304;2022-12-07T03:15:39;4.80;99.90
19252;DHT22;9760;50.944;5.304;2022-12-07T03:18:07;4.90;99.90
19252;DHT22;9760;50.944;5.304;2022-12-07T03:20:35;4.80;99.90
19252;DHT22;9760;50.944;5.304;2022-12-07T03:23:05;4.80;99.90
19252;DHT22;9760;50.944;5.304;2022-12-07T03:25:33;4.80;99.90
19252;DHT22;9760;50.944;5.304;2022-12-07T03:28:03;4.80;99.90
19252;DHT22;9760;50.944;5.304;2022-12-07T03:30:56;4.80;99.90
19252;DHT22;9760;50.944;5.304;2022-12-07T03:33:58;4.80;99.90
19252;DHT22;9760;50.944;5.304;2022-12-07T03:36:31;4.70;99.90
19252;DHT22;9760;50.944;5.304;2022-12-07T03:41:38;4.80;99.90
19252;DHT22;9760;50.944;5.304;2022-12-07T03:44:05;4.80;99.90
19252;DHT22;9760;50.944;5.304;2022-12-07T03:46:56;4.80;99.90
19252;DHT22;9760;50.944;5.304;2022-12-07T03:49:27;4.80;99.90
19252;DHT22;9760;50.944;5.304;2022-12-07T03:55:02;4.90;99.90
19252;DHT22;9760;50.944;5.304;2022-12-07T03:57:33;4.80;99.90
19252;DHT22;9760;50.944;5.304;2022-12-07T04:00:00;4.80;99.90
19252;DHT22;9760;50.944;5.304;2022-12-07T04:02:28;4.80;99.90
19252;DHT22;9760;50.944;5.304;2022-12-07T04:04:55;4.80;99.90
19252;DHT22;9760;50.944;5.304;2022-12-07T04:07:21;4.70;99.90
19252;DHT22;9760;50.944;5.304;2022-12-07T04:09:47;4.70;99.90
19252;DHT22;9760;50.944;5.304;2022-12-07T04:12:12;4.60;99.90
19252;DHT22;9760;50.944;5.304;2022-12-07T04:14:38;4.60;99.90
19252;DHT22;9760;50.944;5.304;2022-12-07T04:17:04;4.50;99.90
19252;DHT22;9760;50.944;5.304;2022-12-07T04:19:32;4.40;99.90
19252;DHT22;9760;50.944;5.304;2022-12-07T04:21:59;4.40;99.90
19252;DHT22;9760;50.944;5.304;2022-12-07T04:24:25;4.40;99.90
19252;DHT22;9760;50.944;5.304;2022-12-07T04:26:51;4.30;99.90
19252;DHT22;9760;50.944;5.304;2022-12-07T04:29:18;4.30;99.90
19252;DHT22;9760;50.944;5.304;2022-12-07T04:31:44;4.30;99.90
19252;DHT22;9760;50.944;5.304;2022-12-07T04:34:11;4.30;99.90
19252;DHT22;9760;50.944;5.304;2022-12-07T04:36:37;4.30;99.90
19252;DHT22;9760;50.944;5.304;2022-12-07T04:39:04;4.20;99.90
19252;DHT22;9760;50.944;5.304;2022-12-07T04:41:30;4.30;99.90
19252;DHT22;9760;50.944;5.304;2022-12-07T04:43:59;4.30;99.90
19252;DHT22;9760;50.944;5.304;2022-12-07T04:46:25;4.30;99.90
19252;DHT22;9760;50.944;5.304;2022-12-07T04:48:52;4.30;99.90
19252;DHT22;9760;50.944;5.304;2022-12-07T04:51:23;4.30;99.90
19252;DHT22;9760;50.944;5.304;2022-12-07T04:53:50;4.40;99.90
19252;DHT22;9760;50.944;5.304;2022-12-07T04:56:16;4.40;99.90
19252;DHT22;9760;50.944;5.304;2022-12-07T04:58:43;4.30;99.90
19252;DHT22;9760;50.944;5.304;2022-12-07T05:01:10;4.20;99.90
19252;DHT22;9760;50.944;5.304;2022-12-07T05:03:36;4.10;99.90
19252;DHT22;9760;50.944;5.304;2022-12-07T05:06:03;4.10;99.90
19252;DHT22;9760;50.944;5.304;2022-12-07T05:08:29;4.00;99.90
19252;DHT22;9760;50.944;5.304;2022-12-07T05:10:54;4.00;99.90
19252;DHT22;9760;50.944;5.304;2022-12-07T05:13:20;4.00;99.90
19252;DHT22;9760;50.944;5.304;2022-12-07T05:15:47;4.00;99.90
19252;DHT22;9760;50.944;5.304;2022-12-07T05:18:13;3.90;99.90
19252;DHT22;9760;50.944;5.304;2022-12-07T05:20:41;3.90;99.90
19252;DHT22;9760;50.944;5.304;2022-12-07T05:23:07;3.90;99.90
19252;DHT22;9760;50.944;5.304;2022-12-07T05:25:33;3.90;99.90
19252;DHT22;9760;50.944;5.304;2022-12-07T05:27:59;3.90;99.90
19252;DHT22;9760;50.944;5.304;2022-12-07T05:30:25;3.90;99.90
19252;DHT22;9760;50.944;5.304;2022-12-07T05:32:51;3.90;99.90
19252;DHT22;9760;50.944;5.304;2022-12-07T05:35:17;3.90;99.90
19252;DHT22;9760;50.944;5.304;2022-12-07T05:37:44;3.80;99.90
19252;DHT22;9760;50.944;5.304;2022-12-07T05:40:11;3.70;99.90
19252;DHT22;9760;50.944;5.304;2022-12-07T05:42:37;3.80;99.90
19252;DHT22;9760;50.944;5.304;2022-12-07T05:45:03;3.80;99.90
19252;DHT22;9760;50.944;5.304;2022-12-07T05:47:29;3.90;99.90
19252;DHT22;9760;50.944;5.304;2022-12-07T05:49:54;3.90;99.90
19252;DHT22;9760;50.944;5.304;2022-12-07T05:52:20;4.00;99.90
19252;DHT22;9760;50.944;5.304;2022-12-07T05:54:46;3.90;99.90
19252;DHT22;9760;50.944;5.304;2022-12-07T05:57:11;3.90;99.90
19252;DHT22;9760;50.944;5.304;2022-12-07T05:59:37;3.90;99.90
19252;DHT22;9760;50.944;5.304;2022-12-07T06:02:05;3.90;99.90
19252;DHT22;9760;50.944;5.304;2022-12-07T06:04:33;3.90;99.90
19252;DHT22;9760;50.944;5.304;2022-12-07T06:06:59;4.00;99.90
19252;DHT22;9760;50.944;5.304;2022-12-07T06:09:26;3.90;99.90
19252;DHT22;9760;50.944;5.304;2022-12-07T06:11:52;4.00;99.90
19252;DHT22;9760;50.944;5.304;2022-12-07T06:14:37;4.00;99.90
19252;DHT22;9760;50.944;5.304;2022-12-07T06:17:03;4.10;99.90
19252;DHT22;9760;50.944;5.304;2022-12-07T06:19:28;4.10;99.90
19252;DHT22;9760;50.944;5.304;2022-12-07T06:21:54;4.10;99.90
19252;DHT22;9760;50.944;5.304;2022-12-07T06:24:20;4.10;99.90
19252;DHT22;9760;50.944;5.304;2022-12-07T06:26:46;4.20;99.90
19252;DHT22;9760;50.944;5.304;2022-12-07T06:29:12;4.20;99.90
19252;DHT22;9760;50.944;5.304;2022-12-07T06:31:38;4.20;99.90
19252;DHT22;9760;50.944;5.304;2022-12-07T06:34:10;4.30;99.90
19252;DHT22;9760;50.944;5.304;2022-12-07T06:36:36;4.30;99.90
19252;DHT22;9760;50.944;5.304;2022-12-07T06:39:03;4.30;99.90
19252;DHT22;9760;50.944;5.304;2022-12-07T06:41:29;4.40;99.90
19252;DHT22;9760;50.944;5.304;2022-12-07T06:43:54;4.20;99.90
19252;DHT22;9760;50.944;5.304;2022-12-07T06:46:20;4.20;99.90
19252;DHT22;9760;50.944;5.304;2022-12-07T06:48:46;4.20;99.90
19252;DHT22;9760;50.944;5.304;2022-12-07T06:51:11;4.20;99.90
19252;DHT22;9760;50.944;5.304;2022-12-07T06:53:37;4.20;99.90
19252;DHT22;9760;50.944;5.304;2022-12-07T06:56:04;4.30;99.90
19252;DHT22;9760;50.944;5.304;2022-12-07T06:58:30;4.20;99.90
19252;DHT22;9760;50.944;5.304;2022-12-07T07:00:56;4.20;99.90
19252;DHT22;9760;50.944;5.304;2022-12-07T07:03:21;4.20;99.90
19252;DHT22;9760;50.944;5.304;2022-12-07T07:05:48;4.10;99.90
19252;DHT22;9760;50.944;5.304;2022-12-07T07:08:13;4.10;99.90
19252;DHT22;9760;50.944;5.304;2022-12-07T07:10:39;4.00;99.90
19252;DHT22;9760;50.944;5.304;2022-12-07T07:13:05;4.00;99.90
19252;DHT22;9760;50.944;5.304;2022-12-07T07:15:32;4.00;99.90
19252;DHT22;9760;50.944;5.304;2022-12-07T07:17:58;4.00;99.90
19252;DHT22;9760;50.944;5.304;2022-12-07T07:20:24;4.00;99.90
19252;DHT22;9760;50.944;5.304;2022-12-07T07:22:50;3.80;99.90
19252;DHT22;9760;50.944;5.304;2022-12-07T07:25:15;3.70;99.90
19252;DHT22;9760;50.944;5.304;2022-12-07T07:27:41;3.60;99.90
19252;DHT22;9760;50.944;5.304;2022-12-07T07:30:08;3.60;99.90
19252;DHT22;9760;50.944;5.304;2022-12-07T07:32:34;3.60;99.90
19252;DHT22;9760;50.944;5.304;2022-12-07T07:35:00;3.50;99.90
19252;DHT22;9760;50.944;5.304;2022-12-07T07:37:25;3.50;99.90
19252;DHT22;9760;50.944;5.304;2022-12-07T07:39:51;3.50;99.90
19252;DHT22;9760;50.944;5.304;2022-12-07T07:42:17;3.60;99.90
19252;DHT22;9760;50.944;5.304;2022-12-07T07:44:42;3.60;99.90
19252;DHT22;9760;50.944;5.304;2022-12-07T07:47:08;3.50;99.90
19252;DHT22;9760;50.944;5.304;2022-12-07T07:49:34;3.50;99.90
19252;DHT22;9760;50.944;5.304;2022-12-07T07:51:59;3.40;99.90
19252;DHT22;9760;50.944;5.304;2022-12-07T07:54:25;3.40;99.90
19252;DHT22;9760;50.944;5.304;2022-12-07T07:56:52;3.50;99.90
19252;DHT22;9760;50.944;5.304;2022-12-07T07:59:17;3.40;99.90
19252;DHT22;9760;50.944;5.304;2022-12-07T08:01:43;3.40;99.90
19252;DHT22;9760;50.944;5.304;2022-12-07T08:04:09;3.30;99.90
19252;DHT22;9760;50.944;5.304;2022-12-07T08:06:34;3.40;99.90
19252;DHT22;9760;50.944;5.304;2022-12-07T08:09:00;3.40;99.90
19252;DHT22;9760;50.944;5.304;2022-12-07T08:11:26;3.50;99.90
19252;DHT22;9760;50.944;5.304;2022-12-07T08:13:51;3.50;99.90
19252;DHT22;9760;50.944;5.304;2022-12-07T08:16:17;3.50;99.90
19252;DHT22;9760;50.944;5.304;2022-12-07T08:18:43;3.60;99.90
19252;DHT22;9760;50.944;5.304;2022-12-07T08:21:11;3.60;99.90
19252;DHT22;9760;50.944;5.304;2022-12-07T08:23:37;3.70;99.90
19252;DHT22;9760;50.944;5.304;2022-12-07T08:26:05;3.70;99.90
19252;DHT22;9760;50.944;5.304;2022-12-07T08:28:31;3.70;99.90
19252;DHT22;9760;50.944;5.304;2022-12-07T08:31:07;3.80;99.90
19252;DHT22;9760;50.944;5.304;2022-12-07T08:33:34;3.90;99.90
19252;DHT22;9760;50.944;5.304;2022-12-07T08:36:04;3.90;99.90
19252;DHT22;9760;50.944;5.304;2022-12-07T08:38:31;4.00;99.90
19252;DHT22;9760;50.944;5.304;2022-12-07T08:40:57;4.10;99.90
19252;DHT22;9760;50.944;5.304;2022-12-07T08:43:24;4.30;99.90
19252;DHT22;9760;50.944;5.304;2022-12-07T08:46:36;4.30;99.90
19252;DHT22;9760;50.944;5.304;2022-12-07T08:48:56;4.40;99.90
19252;DHT22;9760;50.944;5.304;2022-12-07T08:51:23;4.50;99.90
19252;DHT22;9760;50.944;5.304;2022-12-07T08:53:50;4.60;99.90
19252;DHT22;9760;50.944;5.304;2022-12-07T08:56:17;4.70;99.90
19252;DHT22;9760;50.944;5.304;2022-12-07T08:58:43;4.70;99.90
19252;DHT22;9760;50.944;5.304;2022-12-07T09:01:08;4.80;99.90
19252;DHT22;9760;50.944;5.304;2022-12-07T09:03:34;4.80;99.90
19252;DHT22;9760;50.944;5.304;2022-12-07T09:06:00;4.80;99.90
19252;DHT22;9760;50.944;5.304;2022-12-07T09:08:31;4.80;99.90
19252;DHT22;9760;50.944;5.304;2022-12-07T09:10:58;4.90;99.90
19252;DHT22;9760;50.944;5.304;2022-12-07T09:13:24;5.00;99.90
19252;DHT22;9760;50.944;5.304;2022-12-07T09:15:49;5.00;99.90
19252;DHT22;9760;50.944;5.304;2022-12-07T09:18:15;5.00;99.90
19252;DHT22;9760;50.944;5.304;2022-12-07T09:20:41;5.00;99.90
19252;DHT22;9760;50.944;5.304;2022-12-07T09:23:07;5.10;99.90
19252;DHT22;9760;50.944;5.304;2022-12-07T09:25:33;5.10;99.90
19252;DHT22;9760;50.944;5.304;2022-12-07T09:27:59;5.10;99.90
19252;DHT22;9760;50.944;5.304;2022-12-07T09:30:26;5.10;99.90
19252;DHT22;9760;50.944;5.304;2022-12-07T09:32:58;5.10;99.90
19252;DHT22;9760;50.944;5.304;2022-12-07T09:35:24;5.10;99.90
19252;DHT22;9760;50.944;5.304;2022-12-07T09:37:50;5.10;99.90
19252;DHT22;9760;50.944;5.304;2022-12-07T09:40:17;5.00;99.90
19252;DHT22;9760;50.944;5.304;2022-12-07T09:42:47;5.10;99.90
19252;DHT22;9760;50.944;5.304;2022-12-07T09:45:24;5.10;99.90
19252;DHT22;9760;50.944;5.304;2022-12-07T09:47:51;5.20;99.90
19252;DHT22;9760;50.944;5.304;2022-12-07T09:50:23;5.20;99.90
19252;DHT22;9760;50.944;5.304;2022-12-07T09:52:50;5.30;99.90
19252;DHT22;9760;50.944;5.304;2022-12-07T09:55:21;5.20;99.90
19252;DHT22;9760;50.944;5.304;2022-12-07T09:57:48;5.20;99.90
19252;DHT22;9760;50.944;5.304;2022-12-07T10:00:16;5.20;99.90
19252;DHT22;9760;50.944;5.304;2022-12-07T10:03:02;5.20;99.90
19252;DHT22;9760;50.944;5.304;2022-12-07T10:05:44;5.60;99.90
19252;DHT22;9760;50.944;5.304;2022-12-07T10:08:11;6.20;99.90
19252;DHT22;9760;50.944;5.304;2022-12-07T10:10:37;6.80;99.90
19252;DHT22;9760;50.944;5.304;2022-12-07T10:13:15;7.40;99.90
19252;DHT22;9760;50.944;5.304;2022-12-07T10:15:50;7.40;99.90
19252;DHT22;9760;50.944;5.304;2022-12-07T10:18:30;7.30;99.90
19252;DHT22;9760;50.944;5.304;2022-12-07T10:21:10;7.30;99.90
19252;DHT22;9760;50.944;5.304;2022-12-07T10:23:38;6.80;99.90
19252;DHT22;9760;50.944;5.304;2022-12-07T10:29:28;6.40;99.90
19252;DHT22;9760;50.944;5.304;2022-12-07T10:32:05;6.20;99.90
19252;DHT22;9760;50.944;5.304;2022-12-07T10:34:35;6.10;99.90
19252;DHT22;9760;50.944;5.304;2022-12-07T10:39:51;6.00;99.90
19252;DHT22;9760;50.944;5.304;2022-12-07T10:42:28;6.00;99.90
19252;DHT22;9760;50.944;5.304;2022-12-07T10:45:15;6.10;99.90
19252;DHT22;9760;50.944;5.304;2022-12-07T11:02:06;6.30;99.90
19252;DHT22;9760;50.944;5.304;2022-12-07T11:15:01;6.50;99.90
19252;DHT22;9760;50.944;5.304;2022-12-07T11:17:54;6.40;99.90
19252;DHT22;9760;50.944;5.304;2022-12-07T11:20:39;6.50;99.90
19252;DHT22;9760;50.944;5.304;2022-12-07T11:31:22;6.50;99.90
19252;DHT22;9760;50.944;5.304;2022-12-07T11:36:48;6.60;99.90
19252;DHT22;9760;50.944;5.304;2022-12-07T11:41:45;6.70;99.90
19252;DHT22;9760;50.944;5.304;2022-12-07T11:44:32;6.80;99.90
19252;DHT22;9760;50.944;5.304;2022-12-07T11:47:08;6.90;99.90
19252;DHT22;9760;50.944;5.304;2022-12-07T11:52:43;6.90;99.90
19252;DHT22;9760;50.944;5.304;2022-12-07T12:03:49;6.80;99.90
19252;DHT22;9760;50.944;5.304;2022-12-07T12:06:15;6.80;99.90
19252;DHT22;9760;50.944;5.304;2022-12-07T12:08:48;6.80;99.90
19252;DHT22;9760;50.944;5.304;2022-12-07T12:11:39;6.70;99.90
19252;DHT22;9760;50.944;5.304;2022-12-07T12:20:03;6.90;99.90
19252;DHT22;9760;50.944;5.304;2022-12-07T12:22:40;6.90;99.90
19252;DHT22;9760;50.944;5.304;2022-12-07T12:25:27;7.00;99.90
19252;DHT22;9760;50.944;5.304;2022-12-07T12:27:56;7.00;99.90
19252;DHT22;9760;50.944;5.304;2022-12-07T12:30:29;7.10;99.90
19252;DHT22;9760;50.944;5.304;2022-12-07T12:33:03;7.00;99.90
19252;DHT22;9760;50.944;5.304;2022-12-07T12:40:50;7.00;99.90
19252;DHT22;9760;50.944;5.304;2022-12-07T12:43:48;7.00;99.90
19252;DHT22;9760;50.944;5.304;2022-12-07T12:51:41;7.10;99.90
19252;DHT22;9760;50.944;5.304;2022-12-07T12:56:57;7.10;99.90
19252;DHT22;9760;50.944;5.304;2022-12-07T12:59:33;7.10;99.90
19252;DHT22;9760;50.944;5.304;2022-12-07T13:04:55;6.90;99.90
19252;DHT22;9760;50.944;5.304;2022-12-07T13:15:38;6.90;99.90
19252;DHT22;9760;50.944;5.304;2022-12-07T13:23:37;6.90;99.90
19252;DHT22;9760;50.944;5.304;2022-12-07T13:34:35;6.90;99.90
19252;DHT22;9760;50.944;5.304;2022-12-07T13:37:27;6.80;99.90
19252;DHT22;9760;50.944;5.304;2022-12-07T13:39:58;6.90;99.90
19252;DHT22;9760;50.944;5.304;2022-12-07T13:42:33;7.00;99.90
19252;DHT22;9760;50.944;5.304;2022-12-07T13:45:16;7.00;99.90
19252;DHT22;9760;50.944;5.304;2022-12-07T13:47:51;7.10;99.90
19252;DHT22;9760;50.944;5.304;2022-12-07T13:50:27;7.00;99.90
19252;DHT22;9760;50.944;5.304;2022-12-07T13:52:57;6.90;99.90
19252;DHT22;9760;50.944;5.304;2022-12-07T13:55:23;6.90;99.90
19252;DHT22;9760;50.944;5.304;2022-12-07T13:57:51;7.00;99.90
19252;DHT22;9760;50.944;5.304;2022-12-07T14:00:21;6.80;99.90
19252;DHT22;9760;50.944;5.304;2022-12-07T14:02:59;6.70;99.90
19252;DHT22;9760;50.944;5.304;2022-12-07T14:05:35;6.60;99.90
19252;DHT22;9760;50.944;5.304;2022-12-07T14:08:04;6.60;99.90
19252;DHT22;9760;50.944;5.304;2022-12-07T14:10:32;6.60;99.90
19252;DHT22;9760;50.944;5.304;2022-12-07T14:13:00;6.60;99.90
19252;DHT22;9760;50.944;5.304;2022-12-07T14:15:31;6.60;99.90
19252;DHT22;9760;50.944;5.304;2022-12-07T14:17:58;6.50;99.90
19252;DHT22;9760;50.944;5.304;2022-12-07T14:20:40;6.50;99.90
19252;DHT22;9760;50.944;5.304;2022-12-07T14:23:24;6.60;99.90
19252;DHT22;9760;50.944;5.304;2022-12-07T14:25:52;6.60;99.90
19252;DHT22;9760;50.944;5.304;2022-12-07T14:28:28;6.60;99.90
19252;DHT22;9760;50.944;5.304;2022-12-07T14:30:54;6.60;99.90
19252;DHT22;9760;50.944;5.304;2022-12-07T14:33:21;6.60;99.90
19252;DHT22;9760;50.944;5.304;2022-12-07T14:35:47;6.60;99.90
19252;DHT22;9760;50.944;5.304;2022-12-07T14:38:13;6.70;99.90
19252;DHT22;9760;50.944;5.304;2022-12-07T14:40:38;6.60;99.90
19252;DHT22;9760;50.944;5.304;2022-12-07T14:43:08;6.60;99.90
19252;DHT22;9760;50.944;5.304;2022-12-07T14:45:34;6.60;99.90
19252;DHT22;9760;50.944;5.304;2022-12-07T14:48:00;6.60;99.90
19252;DHT22;9760;50.944;5.304;2022-12-07T14:50:25;6.50;99.90
19252;DHT22;9760;50.944;5.304;2022-12-07T14:52:55;6.50;99.90
19252;DHT22;9760;50.944;5.304;2022-12-07T14:55:27;6.50;99.90
19252;DHT22;9760;50.944;5.304;2022-12-07T14:57:53;6.50;99.90
19252;DHT22;9760;50.944;5.304;2022-12-07T15:00:19;6.50;99.90
19252;DHT22;9760;50.944;5.304;2022-12-07T15:02:46;6.50;99.90
19252;DHT22;9760;50.944;5.304;2022-12-07T15:05:13;6.50;99.90
19252;DHT22;9760;50.944;5.304;2022-12-07T15:07:39;6.50;99.90
19252;DHT22;9760;50.944;5.304;2022-12-07T15:10:06;6.50;99.90
19252;DHT22;9760;50.944;5.304;2022-12-07T15:12:32;6.40;99.90
19252;DHT22;9760;50.944;5.304;2022-12-07T15:14:57;6.40;99.90
19252;DHT22;9760;50.944;5.304;2022-12-07T15:17:23;6.40;99.90
19252;DHT22;9760;50.944;5.304;2022-12-07T15:19:49;6.40;99.90
19252;DHT22;9760;50.944;5.304;2022-12-07T15:22:14;6.30;99.90
19252;DHT22;9760;50.944;5.304;2022-12-07T15:24:40;6.40;99.90
19252;DHT22;9760;50.944;5.304;2022-12-07T15:27:06;6.30;99.90
19252;DHT22;9760;50.944;5.304;2022-12-07T15:29:32;6.30;99.90
19252;DHT22;9760;50.944;5.304;2022-12-07T15:31:57;6.40;99.90
19252;DHT22;9760;50.944;5.304;2022-12-07T15:34:27;6.40;99.90
19252;DHT22;9760;50.944;5.304;2022-12-07T15:36:54;6.30;99.90
19252;DHT22;9760;50.944;5.304;2022-12-07T15:39:20;6.30;99.90
19252;DHT22;9760;50.944;5.304;2022-12-07T15:41:47;6.30;99.90
19252;DHT22;9760;50.944;5.304;2022-12-07T15:44:13;6.20;99.90
19252;DHT22;9760;50.944;5.304;2022-12-07T15:46:58;6.20;99.90
19252;DHT22;9760;50.944;5.304;2022-12-07T15:49:24;6.10;99.90
19252;DHT22;9760;50.944;5.304;2022-12-07T15:51:50;6.10;99.90
19252;DHT22;9760;50.944;5.304;2022-12-07T15:54:20;6.10;99.90
19252;DHT22;9760;50.944;5.304;2022-12-07T15:56:46;6.00;99.90
19252;DHT22;9760;50.944;5.304;2022-12-07T15:59:11;5.90;99.90
19252;DHT22;9760;50.944;5.304;2022-12-07T16:01:37;5.90;99.90
19252;DHT22;9760;50.944;5.304;2022-12-07T16:04:02;5.90;99.90
19252;DHT22;9760;50.944;5.304;2022-12-07T16:06:28;5.80;99.90
19252;DHT22;9760;50.944;5.304;2022-12-07T16:08:54;5.80;99.90
19252;DHT22;9760;50.944;5.304;2022-12-07T16:11:20;5.80;99.90
19252;DHT22;9760;50.944;5.304;2022-12-07T16:13:45;5.70;99.90
19252;DHT22;9760;50.944;5.304;2022-12-07T16:16:14;5.70;99.90
19252;DHT22;9760;50.944;5.304;2022-12-07T16:18:41;5.70;99.90
19252;DHT22;9760;50.944;5.304;2022-12-07T16:21:07;5.70;99.90
19252;DHT22;9760;50.944;5.304;2022-12-07T16:23:32;5.60;99.90
19252;DHT22;9760;50.944;5.304;2022-12-07T16:26:11;5.70;99.90
19252;DHT22;9760;50.944;5.304;2022-12-07T16:28:37;5.60;99.90
19252;DHT22;9760;50.944;5.304;2022-12-07T16:31:11;5.60;99.90
19252;DHT22;9760;50.944;5.304;2022-12-07T16:33:38;5.60;99.90
19252;DHT22;9760;50.944;5.304;2022-12-07T16:36:06;5.60;99.90
19252;DHT22;9760;50.944;5.304;2022-12-07T16:38:32;5.60;99.90
19252;DHT22;9760;50.944;5.304;2022-12-07T16:40:58;5.50;99.90
19252;DHT22;9760;50.944;5.304;2022-12-07T16:43:23;5.50;99.90
19252;DHT22;9760;50.944;5.304;2022-12-07T16:45:49;5.50;99.90
19252;DHT22;9760;50.944;5.304;2022-12-07T16:48:15;5.50;99.90
19252;DHT22;9760;50.944;5.304;2022-12-07T16:50:42;5.50;99.90
19252;DHT22;9760;50.944;5.304;2022-12-07T16:53:08;5.50;99.90
19252;DHT22;9760;50.944;5.304;2022-12-07T16:55:42;5.50;99.90
19252;DHT22;9760;50.944;5.304;2022-12-07T16:58:08;5.40;99.90
19252;DHT22;9760;50.944;5.304;2022-12-07T17:00:34;5.40;99.90
19252;DHT22;9760;50.944;5.304;2022-12-07T17:03:00;5.40;99.90
19252;DHT22;9760;50.944;5.304;2022-12-07T17:05:27;5.40;99.90
19252;DHT22;9760;50.944;5.304;2022-12-07T17:07:55;5.40;99.90
19252;DHT22;9760;50.944;5.304;2022-12-07T17:10:22;5.40;99.90
19252;DHT22;9760;50.944;5.304;2022-12-07T17:12:48;5.40;99.90
19252;DHT22;9760;50.944;5.304;2022-12-07T17:15:14;5.60;99.90
19252;DHT22;9760;50.944;5.304;2022-12-07T17:17:44;5.40;99.90
19252;DHT22;9760;50.944;5.304;2022-12-07T17:20:10;5.40;99.90
19252;DHT22;9760;50.944;5.304;2022-12-07T17:22:36;5.40;99.90
19252;DHT22;9760;50.944;5.304;2022-12-07T17:25:03;5.40;99.90
19252;DHT22;9760;50.944;5.304;2022-12-07T17:27:29;5.30;99.90
19252;DHT22;9760;50.944;5.304;2022-12-07T17:29:56;5.30;99.90
19252;DHT22;9760;50.944;5.304;2022-12-07T17:32:22;5.30;99.90
19252;DHT22;9760;50.944;5.304;2022-12-07T17:34:47;5.30;99.90
19252;DHT22;9760;50.944;5.304;2022-12-07T17:37:13;5.30;99.90
19252;DHT22;9760;50.944;5.304;2022-12-07T17:39:39;5.30;99.90
19252;DHT22;9760;50.944;5.304;2022-12-07T17:42:05;5.20;99.90
19252;DHT22;9760;50.944;5.304;2022-12-07T17:44:49;5.10;99.90
19252;DHT22;9760;50.944;5.304;2022-12-07T17:47:15;5.20;99.90
19252;DHT22;9760;50.944;5.304;2022-12-07T17:49:42;5.20;99.90
19252;DHT22;9760;50.944;5.304;2022-12-07T17:52:11;5.20;99.90
19252;DHT22;9760;50.944;5.304;2022-12-07T17:54:55;5.10;99.90
19252;DHT22;9760;50.944;5.304;2022-12-07T17:57:21;5.10;99.90
19252;DHT22;9760;50.944;5.304;2022-12-07T17:59:47;5.20;99.90
19252;DHT22;9760;50.944;5.304;2022-12-07T18:02:13;5.20;99.90
19252;DHT22;9760;50.944;5.304;2022-12-07T18:04:39;5.20;99.90
19252;DHT22;9760;50.944;5.304;2022-12-07T18:07:06;5.20;99.90
19252;DHT22;9760;50.944;5.304;2022-12-07T18:09:32;5.20;99.90
19252;DHT22;9760;50.944;5.304;2022-12-07T18:11:58;5.20;99.90
19252;DHT22;9760;50.944;5.304;2022-12-07T18:14:23;5.30;99.90
19252;DHT22;9760;50.944;5.304;2022-12-07T18:16:49;5.20;99.90
19252;DHT22;9760;50.944;5.304;2022-12-07T18:19:15;5.10;99.90
19252;DHT22;9760;50.944;5.304;2022-12-07T18:21:42;5.20;99.90
19252;DHT22;9760;50.944;5.304;2022-12-07T18:24:10;5.20;99.90
19252;DHT22;9760;50.944;5.304;2022-12-07T18:26:37;5.10;99.90
19252;DHT22;9760;50.944;5.304;2022-12-07T18:29:05;5.10;99.90
19252;DHT22;9760;50.944;5.304;2022-12-07T18:31:32;5.10;99.90